sensor_id;sensor_type;location;lat;lon;timestamp;P1;durP1;ratioP1;P2;durP2;ratioP2
16193;SDS011;8204;53.582;10.080;2022-10-22T00:01:10;20.40;;;18.20;;
16193;SDS011;8204;53.582;10.080;2022-10-22T00:03:38;20.87;;;18.77;;
16193;SDS011;8204;53.582;10.080;2022-10-22T00:06:07;19.50;;;17.37;;
16193;SDS011;8204;53.582;10.080;2022-10-22T00:08:37;19.53;;;17.60;;
16193;SDS011;8204;53.582;10.080;2022-10-22T00:11:12;20.00;;;18.00;;
16193;SDS011;8204;53.582;10.080;2022-10-22T00:13:42;19.20;;;17.53;;
16193;SDS011;8204;53.582;10.080;2022-10-22T00:16:11;20.50;;;17.90;;
16193;SDS011;8204;53.582;10.080;2022-10-22T00:18:41;20.27;;;18.57;;
16193;SDS011;8204;53.582;10.080;2022-10-22T00:21:10;20.13;;;18.30;;
16193;SDS011;8204;53.582;10.080;2022-10-22T00:23:39;20.77;;;18.80;;
16193;SDS011;8204;53.582;10.080;2022-10-22T00:26:08;17.90;;;16.37;;
16193;SDS011;8204;53.582;10.080;2022-10-22T00:28:40;19.37;;;17.57;;
16193;SDS011;8204;53.582;10.080;2022-10-22T00:31:09;20.67;;;18.77;;
16193;SDS011;8204;53.582;10.080;2022-10-22T00:33:40;20.07;;;18.10;;
16193;SDS011;8204;53.582;10.080;2022-10-22T00:36:09;19.13;;;17.40;;
16193;SDS011;8204;53.582;10.080;2022-10-22T00:38:38;20.87;;;18.90;;
16193;SDS011;8204;53.582;10.080;2022-10-22T00:41:07;20.70;;;18.77;;
16193;SDS011;8204;53.582;10.080;2022-10-22T00:46:24;20.90;;;17.33;;
16193;SDS011;8204;53.582;10.080;2022-10-22T00:48:52;21.53;;;19.53;;
16193;SDS011;8204;53.582;10.080;2022-10-22T00:51:24;19.73;;;17.83;;
16193;SDS011;8204;53.582;10.080;2022-10-22T00:53:59;18.17;;;16.37;;
16193;SDS011;8204;53.582;10.080;2022-10-22T00:56:30;18.43;;;16.67;;
16193;SDS011;8204;53.582;10.080;2022-10-22T00:59:02;19.67;;;17.87;;
16193;SDS011;8204;53.582;10.080;2022-10-22T01:01:31;19.57;;;17.70;;
16193;SDS011;8204;53.582;10.080;2022-10-22T01:04:00;22.47;;;18.40;;
16193;SDS011;8204;53.582;10.080;2022-10-22T01:06:29;18.30;;;16.63;;
16193;SDS011;8204;53.582;10.080;2022-10-22T01:09:02;21.03;;;18.93;;
16193;SDS011;8204;53.582;10.080;2022-10-22T01:11:47;19.57;;;17.57;;
16193;SDS011;8204;53.582;10.080;2022-10-22T01:14:26;18.87;;;16.97;;
16193;SDS011;8204;53.582;10.080;2022-10-22T01:17:03;18.53;;;16.73;;
16193;SDS011;8204;53.582;10.080;2022-10-22T01:19:39;19.03;;;16.03;;
16193;SDS011;8204;53.582;10.080;2022-10-22T01:22:25;21.27;;;18.53;;
16193;SDS011;8204;53.582;10.080;2022-10-22T01:24:59;19.83;;;17.93;;
16193;SDS011;8204;53.582;10.080;2022-10-22T01:27:41;17.67;;;16.10;;
16193;SDS011;8204;53.582;10.080;2022-10-22T01:30:22;19.03;;;17.20;;
16193;SDS011;8204;53.582;10.080;2022-10-22T01:32:53;19.30;;;17.37;;
16193;SDS011;8204;53.582;10.080;2022-10-22T01:35:26;27.03;;;19.83;;
16193;SDS011;8204;53.582;10.080;2022-10-22T01:37:59;20.27;;;18.30;;
16193;SDS011;8204;53.582;10.080;2022-10-22T01:40:31;19.27;;;17.30;;
16193;SDS011;8204;53.582;10.080;2022-10-22T01:43:02;19.53;;;17.73;;
16193;SDS011;8204;53.582;10.080;2022-10-22T01:45:37;19.97;;;16.83;;
16193;SDS011;8204;53.582;10.080;2022-10-22T01:48:14;17.30;;;15.70;;
16193;SDS011;8204;53.582;10.080;2022-10-22T01:50:58;18.67;;;16.97;;
16193;SDS011;8204;53.582;10.080;2022-10-22T01:53:43;19.93;;;17.93;;
16193;SDS011;8204;53.582;10.080;2022-10-22T01:56:23;19.93;;;17.87;;
16193;SDS011;8204;53.582;10.080;2022-10-22T01:59:02;20.13;;;18.17;;
16193;SDS011;8204;53.582;10.080;2022-10-22T02:01:40;19.27;;;17.43;;
16193;SDS011;8204;53.582;10.080;2022-10-22T02:04:17;18.77;;;17.07;;
16193;SDS011;8204;53.582;10.080;2022-10-22T02:06:48;17.57;;;15.97;;
16193;SDS011;8204;53.582;10.080;2022-10-22T02:09:22;17.90;;;16.07;;
16193;SDS011;8204;53.582;10.080;2022-10-22T02:11:54;20.10;;;17.13;;
16193;SDS011;8204;53.582;10.080;2022-10-22T02:14:26;19.60;;;17.57;;
16193;SDS011;8204;53.582;10.080;2022-10-22T02:17:01;23.70;;;17.77;;
16193;SDS011;8204;53.582;10.080;2022-10-22T02:19:34;19.40;;;17.63;;
16193;SDS011;8204;53.582;10.080;2022-10-22T02:22:09;17.90;;;16.07;;
16193;SDS011;8204;53.582;10.080;2022-10-22T02:24:38;17.83;;;16.03;;
16193;SDS011;8204;53.582;10.080;2022-10-22T02:27:08;19.30;;;17.30;;
16193;SDS011;8204;53.582;10.080;2022-10-22T02:29:45;17.03;;;15.27;;
16193;SDS011;8204;53.582;10.080;2022-10-22T02:32:23;17.80;;;16.20;;
16193;SDS011;8204;53.582;10.080;2022-10-22T02:34:58;18.30;;;16.03;;
16193;SDS011;8204;53.582;10.080;2022-10-22T02:37:29;20.30;;;15.53;;
16193;SDS011;8204;53.582;10.080;2022-10-22T02:39:58;17.37;;;15.57;;
16193;SDS011;8204;53.582;10.080;2022-10-22T02:42:27;17.90;;;16.10;;
16193;SDS011;8204;53.582;10.080;2022-10-22T02:44:57;17.23;;;15.43;;
16193;SDS011;8204;53.582;10.080;2022-10-22T02:47:29;16.43;;;14.90;;
16193;SDS011;8204;53.582;10.080;2022-10-22T02:49:57;14.60;;;13.40;;
16193;SDS011;8204;53.582;10.080;2022-10-22T02:52:27;16.33;;;14.83;;
16193;SDS011;8204;53.582;10.080;2022-10-22T02:54:56;14.60;;;13.40;;
16193;SDS011;8204;53.582;10.080;2022-10-22T02:57:25;14.87;;;13.37;;
16193;SDS011;8204;53.582;10.080;2022-10-22T02:59:53;15.63;;;14.20;;
16193;SDS011;8204;53.582;10.080;2022-10-22T03:02:22;16.73;;;15.13;;
16193;SDS011;8204;53.582;10.080;2022-10-22T03:04:53;15.60;;;14.03;;
16193;SDS011;8204;53.582;10.080;2022-10-22T03:07:23;18.33;;;16.47;;
16193;SDS011;8204;53.582;10.080;2022-10-22T03:09:52;19.13;;;15.53;;
16193;SDS011;8204;53.582;10.080;2022-10-22T03:12:21;17.87;;;16.00;;
16193;SDS011;8204;53.582;10.080;2022-10-22T03:14:50;21.97;;;15.27;;
16193;SDS011;8204;53.582;10.080;2022-10-22T03:17:18;16.43;;;14.93;;
16193;SDS011;8204;53.582;10.080;2022-10-22T03:19:47;15.33;;;13.87;;
16193;SDS011;8204;53.582;10.080;2022-10-22T03:22:20;17.43;;;15.73;;
16193;SDS011;8204;53.582;10.080;2022-10-22T03:24:51;16.33;;;14.73;;
16193;SDS011;8204;53.582;10.080;2022-10-22T03:27:23;16.83;;;15.17;;
16193;SDS011;8204;53.582;10.080;2022-10-22T03:29:54;17.27;;;15.10;;
16193;SDS011;8204;53.582;10.080;2022-10-22T03:32:25;17.10;;;15.47;;
16193;SDS011;8204;53.582;10.080;2022-10-22T03:34:54;17.87;;;16.10;;
16193;SDS011;8204;53.582;10.080;2022-10-22T03:37:25;18.07;;;16.30;;
16193;SDS011;8204;53.582;10.080;2022-10-22T03:39:54;17.37;;;15.67;;
16193;SDS011;8204;53.582;10.080;2022-10-22T03:42:23;18.00;;;16.30;;
16193;SDS011;8204;53.582;10.080;2022-10-22T03:44:53;18.47;;;16.63;;
16193;SDS011;8204;53.582;10.080;2022-10-22T03:47:22;18.33;;;16.63;;
16193;SDS011;8204;53.582;10.080;2022-10-22T03:49:50;19.10;;;17.10;;
16193;SDS011;8204;53.582;10.080;2022-10-22T03:52:19;18.20;;;16.53;;
16193;SDS011;8204;53.582;10.080;2022-10-22T03:54:51;18.27;;;16.57;;
16193;SDS011;8204;53.582;10.080;2022-10-22T03:57:20;18.27;;;16.57;;
16193;SDS011;8204;53.582;10.080;2022-10-22T03:59:48;20.20;;;18.47;;
16193;SDS011;8204;53.582;10.080;2022-10-22T04:02:17;19.47;;;17.57;;
16193;SDS011;8204;53.582;10.080;2022-10-22T04:04:46;17.20;;;15.70;;
16193;SDS011;8204;53.582;10.080;2022-10-22T04:07:15;17.90;;;16.10;;
16193;SDS011;8204;53.582;10.080;2022-10-22T04:09:44;18.10;;;16.50;;
16193;SDS011;8204;53.582;10.080;2022-10-22T04:12:16;17.30;;;15.50;;
16193;SDS011;8204;53.582;10.080;2022-10-22T04:14:46;19.20;;;17.27;;
16193;SDS011;8204;53.582;10.080;2022-10-22T04:17:15;18.70;;;17.00;;
16193;SDS011;8204;53.582;10.080;2022-10-22T04:19:43;19.10;;;17.10;;
16193;SDS011;8204;53.582;10.080;2022-10-22T04:22:12;18.50;;;16.70;;
16193;SDS011;8204;53.582;10.080;2022-10-22T04:24:41;19.53;;;17.43;;
16193;SDS011;8204;53.582;10.080;2022-10-22T04:27:10;20.10;;;18.20;;
16193;SDS011;8204;53.582;10.080;2022-10-22T04:29:41;18.60;;;16.80;;
16193;SDS011;8204;53.582;10.080;2022-10-22T04:32:13;19.93;;;17.83;;
16193;SDS011;8204;53.582;10.080;2022-10-22T04:34:42;19.30;;;17.30;;
16193;SDS011;8204;53.582;10.080;2022-10-22T04:37:11;19.73;;;17.70;;
16193;SDS011;8204;53.582;10.080;2022-10-22T04:39:39;18.33;;;16.63;;
16193;SDS011;8204;53.582;10.080;2022-10-22T04:42:09;19.17;;;17.33;;
16193;SDS011;8204;53.582;10.080;2022-10-22T04:44:41;26.47;;;17.60;;
16193;SDS011;8204;53.582;10.080;2022-10-22T04:47:09;17.97;;;16.33;;
16193;SDS011;8204;53.582;10.080;2022-10-22T04:49:38;21.47;;;19.33;;
16193;SDS011;8204;53.582;10.080;2022-10-22T04:52:07;21.23;;;19.00;;
16193;SDS011;8204;53.582;10.080;2022-10-22T04:54:37;26.37;;;19.87;;
16193;SDS011;8204;53.582;10.080;2022-10-22T04:57:06;21.00;;;18.63;;
16193;SDS011;8204;53.582;10.080;2022-10-22T04:59:38;20.63;;;18.57;;
16193;SDS011;8204;53.582;10.080;2022-10-22T05:02:09;20.20;;;17.30;;
16193;SDS011;8204;53.582;10.080;2022-10-22T05:04:38;20.87;;;18.83;;
16193;SDS011;8204;53.582;10.080;2022-10-22T05:07:07;22.07;;;19.43;;
16193;SDS011;8204;53.582;10.080;2022-10-22T05:09:36;23.47;;;18.17;;
16193;SDS011;8204;53.582;10.080;2022-10-22T05:12:05;20.73;;;18.57;;
16193;SDS011;8204;53.582;10.080;2022-10-22T05:14:34;19.50;;;17.33;;
16193;SDS011;8204;53.582;10.080;2022-10-22T05:17:06;20.87;;;18.97;;
16193;SDS011;8204;53.582;10.080;2022-10-22T05:19:35;20.30;;;18.47;;
16193;SDS011;8204;53.582;10.080;2022-10-22T05:22:04;19.93;;;18.17;;
16193;SDS011;8204;53.582;10.080;2022-10-22T05:24:33;20.10;;;17.73;;
16193;SDS011;8204;53.582;10.080;2022-10-22T05:27:03;19.67;;;17.57;;
16193;SDS011;8204;53.582;10.080;2022-10-22T05:29:32;19.27;;;17.60;;
16193;SDS011;8204;53.582;10.080;2022-10-22T05:32:01;16.60;;;15.07;;
16193;SDS011;8204;53.582;10.080;2022-10-22T05:34:32;17.10;;;15.40;;
16193;SDS011;8204;53.582;10.080;2022-10-22T05:37:01;15.17;;;13.97;;
16193;SDS011;8204;53.582;10.080;2022-10-22T05:39:30;16.83;;;15.50;;
16193;SDS011;8204;53.582;10.080;2022-10-22T05:42:01;16.40;;;14.80;;
16193;SDS011;8204;53.582;10.080;2022-10-22T05:44:30;18.70;;;16.83;;
16193;SDS011;8204;53.582;10.080;2022-10-22T05:46:58;18.87;;;17.10;;
16193;SDS011;8204;53.582;10.080;2022-10-22T05:49:27;19.20;;;17.50;;
16193;SDS011;8204;53.582;10.080;2022-10-22T05:51:59;18.43;;;16.63;;
16193;SDS011;8204;53.582;10.080;2022-10-22T05:54:27;16.87;;;15.20;;
16193;SDS011;8204;53.582;10.080;2022-10-22T05:56:56;18.77;;;17.17;;
16193;SDS011;8204;53.582;10.080;2022-10-22T05:59:25;19.37;;;17.57;;
16193;SDS011;8204;53.582;10.080;2022-10-22T06:01:54;19.10;;;17.40;;
16193;SDS011;8204;53.582;10.080;2022-10-22T06:04:23;19.23;;;17.53;;
16193;SDS011;8204;53.582;10.080;2022-10-22T06:06:52;20.13;;;18.13;;
16193;SDS011;8204;53.582;10.080;2022-10-22T06:09:23;18.90;;;17.10;;
16193;SDS011;8204;53.582;10.080;2022-10-22T06:11:56;20.23;;;18.30;;
16193;SDS011;8204;53.582;10.080;2022-10-22T06:14:25;19.77;;;17.83;;
16193;SDS011;8204;53.582;10.080;2022-10-22T06:16:57;19.77;;;17.83;;
16193;SDS011;8204;53.582;10.080;2022-10-22T06:19:27;19.77;;;17.93;;
16193;SDS011;8204;53.582;10.080;2022-10-22T06:21:56;21.50;;;19.43;;
16193;SDS011;8204;53.582;10.080;2022-10-22T06:24:28;18.00;;;16.40;;
16193;SDS011;8204;53.582;10.080;2022-10-22T06:26:57;19.30;;;17.50;;
16193;SDS011;8204;53.582;10.080;2022-10-22T06:29:26;19.73;;;17.83;;
16193;SDS011;8204;53.582;10.080;2022-10-22T06:31:55;18.93;;;17.13;;
16193;SDS011;8204;53.582;10.080;2022-10-22T06:34:23;19.50;;;17.83;;
16193;SDS011;8204;53.582;10.080;2022-10-22T06:36:53;18.33;;;16.50;;
16193;SDS011;8204;53.582;10.080;2022-10-22T06:39:22;19.73;;;17.73;;
16193;SDS011;8204;53.582;10.080;2022-10-22T06:41:53;19.80;;;17.90;;
16193;SDS011;8204;53.582;10.080;2022-10-22T06:44:22;20.13;;;18.23;;
16193;SDS011;8204;53.582;10.080;2022-10-22T06:46:51;23.47;;;21.13;;
16193;SDS011;8204;53.582;10.080;2022-10-22T06:49:23;24.53;;;22.13;;
16193;SDS011;8204;53.582;10.080;2022-10-22T06:51:52;20.80;;;18.70;;
16193;SDS011;8204;53.582;10.080;2022-10-22T06:54:21;23.70;;;21.33;;
16193;SDS011;8204;53.582;10.080;2022-10-22T06:56:50;22.50;;;20.40;;
16193;SDS011;8204;53.582;10.080;2022-10-22T06:59:22;22.70;;;20.60;;
16193;SDS011;8204;53.582;10.080;2022-10-22T07:01:50;23.43;;;21.27;;
16193;SDS011;8204;53.582;10.080;2022-10-22T07:04:19;23.77;;;21.37;;
16193;SDS011;8204;53.582;10.080;2022-10-22T07:06:48;22.90;;;20.77;;
16193;SDS011;8204;53.582;10.080;2022-10-22T07:09:17;26.63;;;24.10;;
16193;SDS011;8204;53.582;10.080;2022-10-22T07:11:46;26.40;;;23.57;;
16193;SDS011;8204;53.582;10.080;2022-10-22T07:14:15;25.80;;;23.30;;
16193;SDS011;8204;53.582;10.080;2022-10-22T07:16:46;22.00;;;19.97;;
16193;SDS011;8204;53.582;10.080;2022-10-22T07:19:15;23.53;;;21.23;;
16193;SDS011;8204;53.582;10.080;2022-10-22T07:21:44;23.60;;;21.17;;
16193;SDS011;8204;53.582;10.080;2022-10-22T07:24:12;23.80;;;21.27;;
16193;SDS011;8204;53.582;10.080;2022-10-22T07:26:41;22.73;;;20.67;;
16193;SDS011;8204;53.582;10.080;2022-10-22T07:29:10;23.13;;;20.90;;
16193;SDS011;8204;53.582;10.080;2022-10-22T07:31:40;23.80;;;21.30;;
16193;SDS011;8204;53.582;10.080;2022-10-22T07:34:11;23.10;;;20.80;;
16193;SDS011;8204;53.582;10.080;2022-10-22T07:36:40;22.67;;;20.57;;
16193;SDS011;8204;53.582;10.080;2022-10-22T07:39:09;22.27;;;19.97;;
16193;SDS011;8204;53.582;10.080;2022-10-22T07:41:37;22.60;;;20.43;;
16193;SDS011;8204;53.582;10.080;2022-10-22T07:44:06;21.77;;;19.43;;
16193;SDS011;8204;53.582;10.080;2022-10-22T07:46:35;21.30;;;19.00;;
16193;SDS011;8204;53.582;10.080;2022-10-22T07:49:04;23.07;;;20.87;;
16193;SDS011;8204;53.582;10.080;2022-10-22T07:51:35;21.77;;;19.73;;
16193;SDS011;8204;53.582;10.080;2022-10-22T07:54:04;28.40;;;21.00;;
16193;SDS011;8204;53.582;10.080;2022-10-22T07:56:32;22.30;;;20.30;;
16193;SDS011;8204;53.582;10.080;2022-10-22T07:59:01;23.20;;;20.93;;
16193;SDS011;8204;53.582;10.080;2022-10-22T08:01:30;22.13;;;19.93;;
16193;SDS011;8204;53.582;10.080;2022-10-22T08:03:59;24.30;;;21.80;;
16193;SDS011;8204;53.582;10.080;2022-10-22T08:06:28;21.97;;;19.50;;
16193;SDS011;8204;53.582;10.080;2022-10-22T08:09:00;22.80;;;20.53;;
16193;SDS011;8204;53.582;10.080;2022-10-22T08:11:29;23.90;;;19.73;;
16193;SDS011;8204;53.582;10.080;2022-10-22T08:13:58;23.73;;;21.37;;
16193;SDS011;8204;53.582;10.080;2022-10-22T08:16:28;23.10;;;20.77;;
16193;SDS011;8204;53.582;10.080;2022-10-22T08:18:57;23.23;;;21.03;;
16193;SDS011;8204;53.582;10.080;2022-10-22T08:21:26;21.57;;;19.47;;
16193;SDS011;8204;53.582;10.080;2022-10-22T08:23:55;20.93;;;19.13;;
16193;SDS011;8204;53.582;10.080;2022-10-22T08:26:26;20.53;;;18.63;;
16193;SDS011;8204;53.582;10.080;2022-10-22T08:28:55;20.83;;;18.63;;
16193;SDS011;8204;53.582;10.080;2022-10-22T08:31:24;19.40;;;17.53;;
16193;SDS011;8204;53.582;10.080;2022-10-22T08:33:55;21.37;;;19.20;;
16193;SDS011;8204;53.582;10.080;2022-10-22T08:36:25;20.83;;;18.77;;
16193;SDS011;8204;53.582;10.080;2022-10-22T08:38:54;19.53;;;17.80;;
16193;SDS011;8204;53.582;10.080;2022-10-22T08:41:23;20.17;;;18.27;;
16193;SDS011;8204;53.582;10.080;2022-10-22T08:44:10;20.03;;;18.33;;
16193;SDS011;8204;53.582;10.080;2022-10-22T08:46:53;18.83;;;16.50;;
16193;SDS011;8204;53.582;10.080;2022-10-22T08:49:34;18.87;;;17.03;;
16193;SDS011;8204;53.582;10.080;2022-10-22T08:52:07;18.57;;;16.80;;
16193;SDS011;8204;53.582;10.080;2022-10-22T08:54:42;19.03;;;17.17;;
16193;SDS011;8204;53.582;10.080;2022-10-22T08:57:27;19.57;;;17.57;;
16193;SDS011;8204;53.582;10.080;2022-10-22T09:00:13;20.07;;;17.90;;
16193;SDS011;8204;53.582;10.080;2022-10-22T09:02:47;19.60;;;14.73;;
16193;SDS011;8204;53.582;10.080;2022-10-22T09:05:30;17.40;;;15.73;;
16193;SDS011;8204;53.582;10.080;2022-10-22T09:08:08;20.03;;;18.17;;
16193;SDS011;8204;53.582;10.080;2022-10-22T09:10:39;19.77;;;17.77;;
16193;SDS011;8204;53.582;10.080;2022-10-22T09:13:15;18.67;;;16.97;;
16193;SDS011;8204;53.582;10.080;2022-10-22T09:15:49;17.17;;;15.37;;
16193;SDS011;8204;53.582;10.080;2022-10-22T09:18:25;18.20;;;16.30;;
16193;SDS011;8204;53.582;10.080;2022-10-22T09:21:05;19.43;;;15.13;;
16193;SDS011;8204;53.582;10.080;2022-10-22T09:23:49;15.67;;;14.20;;
16193;SDS011;8204;53.582;10.080;2022-10-22T09:26:23;16.90;;;14.33;;
16193;SDS011;8204;53.582;10.080;2022-10-22T09:28:53;17.57;;;14.90;;
16193;SDS011;8204;53.582;10.080;2022-10-22T09:31:25;16.07;;;14.40;;
16193;SDS011;8204;53.582;10.080;2022-10-22T09:33:57;15.70;;;14.13;;
16193;SDS011;8204;53.582;10.080;2022-10-22T09:36:30;13.53;;;12.13;;
16193;SDS011;8204;53.582;10.080;2022-10-22T09:38:59;14.13;;;12.80;;
16193;SDS011;8204;53.582;10.080;2022-10-22T09:41:29;15.70;;;13.67;;
16193;SDS011;8204;53.582;10.080;2022-10-22T09:43:57;12.50;;;11.23;;
16193;SDS011;8204;53.582;10.080;2022-10-22T09:46:30;13.30;;;11.93;;
16193;SDS011;8204;53.582;10.080;2022-10-22T09:49:10;12.03;;;10.27;;
16193;SDS011;8204;53.582;10.080;2022-10-22T09:51:48;12.13;;;7.53;;
16193;SDS011;8204;53.582;10.080;2022-10-22T09:54:19;13.60;;;9.53;;
16193;SDS011;8204;53.582;10.080;2022-10-22T09:56:50;14.07;;;9.20;;
16193;SDS011;8204;53.582;10.080;2022-10-22T09:59:25;11.87;;;9.20;;
16193;SDS011;8204;53.582;10.080;2022-10-22T10:02:02;10.40;;;9.03;;
16193;SDS011;8204;53.582;10.080;2022-10-22T10:04:34;9.13;;;8.23;;
16193;SDS011;8204;53.582;10.080;2022-10-22T10:07:15;8.50;;;7.70;;
16193;SDS011;8204;53.582;10.080;2022-10-22T10:09:45;10.50;;;9.50;;
16193;SDS011;8204;53.582;10.080;2022-10-22T10:12:20;9.60;;;8.60;;
16193;SDS011;8204;53.582;10.080;2022-10-22T10:15:00;10.60;;;9.60;;
16193;SDS011;8204;53.582;10.080;2022-10-22T10:17:43;9.70;;;8.70;;
16193;SDS011;8204;53.582;10.080;2022-10-22T10:20:24;10.30;;;9.30;;
16193;SDS011;8204;53.582;10.080;2022-10-22T10:23:07;11.40;;;8.27;;
16193;SDS011;8204;53.582;10.080;2022-10-22T10:25:44;13.57;;;8.40;;
16193;SDS011;8204;53.582;10.080;2022-10-22T10:31:18;9.10;;;7.30;;
16193;SDS011;8204;53.582;10.080;2022-10-22T10:33:59;7.00;;;6.30;;
16193;SDS011;8204;53.582;10.080;2022-10-22T10:36:37;7.47;;;5.57;;
16193;SDS011;8204;53.582;10.080;2022-10-22T10:39:11;9.93;;;5.90;;
16193;SDS011;8204;53.582;10.080;2022-10-22T10:41:48;7.27;;;6.00;;
16193;SDS011;8204;53.582;10.080;2022-10-22T10:44:33;14.67;;;6.17;;
16193;SDS011;8204;53.582;10.080;2022-10-22T10:47:12;8.63;;;4.97;;
16193;SDS011;8204;53.582;10.080;2022-10-22T10:49:53;10.90;;;5.53;;
16193;SDS011;8204;53.582;10.080;2022-10-22T10:52:30;8.50;;;5.60;;
16193;SDS011;8204;53.582;10.080;2022-10-22T10:55:10;7.17;;;4.77;;
16193;SDS011;8204;53.582;10.080;2022-10-22T10:57:47;6.37;;;5.73;;
16193;SDS011;8204;53.582;10.080;2022-10-22T11:00:26;9.40;;;5.33;;
16193;SDS011;8204;53.582;10.080;2022-10-22T11:06:05;9.60;;;5.20;;
16193;SDS011;8204;53.582;10.080;2022-10-22T11:08:38;9.87;;;5.33;;
16193;SDS011;8204;53.582;10.080;2022-10-22T11:11:10;8.77;;;4.90;;
16193;SDS011;8204;53.582;10.080;2022-10-22T11:13:44;10.33;;;4.67;;
16193;SDS011;8204;53.582;10.080;2022-10-22T11:16:18;5.60;;;3.93;;
16193;SDS011;8204;53.582;10.080;2022-10-22T11:18:51;9.07;;;5.23;;
16193;SDS011;8204;53.582;10.080;2022-10-22T11:21:31;7.13;;;4.67;;
16193;SDS011;8204;53.582;10.080;2022-10-22T11:24:08;4.17;;;3.80;;
16193;SDS011;8204;53.582;10.080;2022-10-22T11:26:47;5.17;;;3.87;;
16193;SDS011;8204;53.582;10.080;2022-10-22T11:29:21;6.57;;;3.67;;
16193;SDS011;8204;53.582;10.080;2022-10-22T11:31:52;5.67;;;3.73;;
16193;SDS011;8204;53.582;10.080;2022-10-22T11:34:23;11.80;;;4.87;;
16193;SDS011;8204;53.582;10.080;2022-10-22T11:36:58;6.50;;;3.73;;
16193;SDS011;8204;53.582;10.080;2022-10-22T11:39:33;5.20;;;3.63;;
16193;SDS011;8204;53.582;10.080;2022-10-22T11:42:08;5.97;;;4.37;;
16193;SDS011;8204;53.582;10.080;2022-10-22T11:44:45;12.77;;;4.80;;
16193;SDS011;8204;53.582;10.080;2022-10-22T11:47:27;8.37;;;4.43;;
16193;SDS011;8204;53.582;10.080;2022-10-22T11:50:02;8.83;;;3.80;;
16193;SDS011;8204;53.582;10.080;2022-10-22T11:52:52;10.43;;;3.57;;
16193;SDS011;8204;53.582;10.080;2022-10-22T11:55:29;8.57;;;3.87;;
16193;SDS011;8204;53.582;10.080;2022-10-22T12:01:19;3.80;;;3.30;;
16193;SDS011;8204;53.582;10.080;2022-10-22T12:06:51;4.50;;;3.60;;
16193;SDS011;8204;53.582;10.080;2022-10-22T12:09:24;7.23;;;3.53;;
16193;SDS011;8204;53.582;10.080;2022-10-22T12:12:02;4.70;;;3.13;;
16193;SDS011;8204;53.582;10.080;2022-10-22T12:14:50;5.90;;;3.37;;
16193;SDS011;8204;53.582;10.080;2022-10-22T12:17:20;7.97;;;4.20;;
16193;SDS011;8204;53.582;10.080;2022-10-22T12:19:53;6.23;;;3.37;;
16193;SDS011;8204;53.582;10.080;2022-10-22T12:22:27;6.50;;;3.60;;
16193;SDS011;8204;53.582;10.080;2022-10-22T12:25:05;5.70;;;3.20;;
16193;SDS011;8204;53.582;10.080;2022-10-22T12:27:43;4.63;;;2.93;;
16193;SDS011;8204;53.582;10.080;2022-10-22T12:30:16;9.17;;;4.10;;
16193;SDS011;8204;53.582;10.080;2022-10-22T12:32:49;6.93;;;3.27;;
16193;SDS011;8204;53.582;10.080;2022-10-22T12:35:21;7.60;;;3.77;;
16193;SDS011;8204;53.582;10.080;2022-10-22T12:37:53;5.57;;;3.47;;
16193;SDS011;8204;53.582;10.080;2022-10-22T12:40:26;9.93;;;4.40;;
16193;SDS011;8204;53.582;10.080;2022-10-22T12:42:58;5.73;;;3.53;;
16193;SDS011;8204;53.582;10.080;2022-10-22T12:45:28;5.70;;;3.77;;
16193;SDS011;8204;53.582;10.080;2022-10-22T12:47:59;7.40;;;4.00;;
16193;SDS011;8204;53.582;10.080;2022-10-22T12:50:30;4.53;;;3.90;;
16193;SDS011;8204;53.582;10.080;2022-10-22T12:53:03;7.30;;;4.13;;
16193;SDS011;8204;53.582;10.080;2022-10-22T12:55:35;5.37;;;3.70;;
16193;SDS011;8204;53.582;10.080;2022-10-22T12:58:04;5.13;;;3.93;;
16193;SDS011;8204;53.582;10.080;2022-10-22T13:00:34;6.83;;;5.13;;
16193;SDS011;8204;53.582;10.080;2022-10-22T13:03:04;9.20;;;4.60;;
16193;SDS011;8204;53.582;10.080;2022-10-22T13:05:34;4.60;;;3.83;;
16193;SDS011;8204;53.582;10.080;2022-10-22T13:08:07;8.57;;;4.73;;
16193;SDS011;8204;53.582;10.080;2022-10-22T13:10:40;10.27;;;5.00;;
16193;SDS011;8204;53.582;10.080;2022-10-22T13:13:29;5.10;;;4.40;;
16193;SDS011;8204;53.582;10.080;2022-10-22T13:16:14;8.47;;;4.60;;
16193;SDS011;8204;53.582;10.080;2022-10-22T13:18:44;7.30;;;5.07;;
16193;SDS011;8204;53.582;10.080;2022-10-22T13:21:25;7.60;;;4.33;;
16193;SDS011;8204;53.582;10.080;2022-10-22T13:23:56;7.40;;;5.53;;
16193;SDS011;8204;53.582;10.080;2022-10-22T13:26:34;8.87;;;5.00;;
16193;SDS011;8204;53.582;10.080;2022-10-22T13:29:08;5.27;;;4.63;;
16193;SDS011;8204;53.582;10.080;2022-10-22T13:31:43;6.50;;;4.07;;
16193;SDS011;8204;53.582;10.080;2022-10-22T13:34:14;6.43;;;4.23;;
16193;SDS011;8204;53.582;10.080;2022-10-22T13:36:46;8.27;;;5.00;;
16193;SDS011;8204;53.582;10.080;2022-10-22T13:39:15;8.00;;;3.50;;
16193;SDS011;8204;53.582;10.080;2022-10-22T13:41:48;11.97;;;5.17;;
16193;SDS011;8204;53.582;10.080;2022-10-22T13:44:18;5.03;;;4.00;;
16193;SDS011;8204;53.582;10.080;2022-10-22T13:46:47;6.10;;;4.13;;
16193;SDS011;8204;53.582;10.080;2022-10-22T13:49:17;7.87;;;5.17;;
16193;SDS011;8204;53.582;10.080;2022-10-22T13:51:48;5.23;;;3.97;;
16193;SDS011;8204;53.582;10.080;2022-10-22T13:54:18;5.40;;;4.17;;
16193;SDS011;8204;53.582;10.080;2022-10-22T13:56:52;6.57;;;4.50;;
16193;SDS011;8204;53.582;10.080;2022-10-22T13:59:21;5.77;;;4.13;;
16193;SDS011;8204;53.582;10.080;2022-10-22T14:01:50;5.17;;;4.67;;
16193;SDS011;8204;53.582;10.080;2022-10-22T14:04:20;10.10;;;4.90;;
16193;SDS011;8204;53.582;10.080;2022-10-22T14:06:49;6.33;;;3.97;;
16193;SDS011;8204;53.582;10.080;2022-10-22T14:09:18;6.13;;;4.17;;
16193;SDS011;8204;53.582;10.080;2022-10-22T14:11:47;7.30;;;5.03;;
16193;SDS011;8204;53.582;10.080;2022-10-22T14:14:18;4.37;;;3.17;;
16193;SDS011;8204;53.582;10.080;2022-10-22T14:16:47;6.60;;;3.87;;
16193;SDS011;8204;53.582;10.080;2022-10-22T14:19:18;6.83;;;4.13;;
16193;SDS011;8204;53.582;10.080;2022-10-22T14:21:47;4.53;;;3.63;;
16193;SDS011;8204;53.582;10.080;2022-10-22T14:24:17;5.60;;;4.40;;
16193;SDS011;8204;53.582;10.080;2022-10-22T14:26:45;9.77;;;3.73;;
16193;SDS011;8204;53.582;10.080;2022-10-22T14:29:15;7.70;;;3.80;;
16193;SDS011;8204;53.582;10.080;2022-10-22T14:31:46;8.43;;;3.53;;
16193;SDS011;8204;53.582;10.080;2022-10-22T14:34:15;4.53;;;3.60;;
16193;SDS011;8204;53.582;10.080;2022-10-22T14:36:44;10.70;;;4.40;;
16193;SDS011;8204;53.582;10.080;2022-10-22T14:39:13;8.10;;;4.30;;
16193;SDS011;8204;53.582;10.080;2022-10-22T14:41:43;4.43;;;2.83;;
16193;SDS011;8204;53.582;10.080;2022-10-22T14:44:12;8.60;;;4.00;;
16193;SDS011;8204;53.582;10.080;2022-10-22T14:46:41;7.03;;;3.80;;
16193;SDS011;8204;53.582;10.080;2022-10-22T14:49:13;6.47;;;3.53;;
16193;SDS011;8204;53.582;10.080;2022-10-22T14:51:42;4.37;;;3.53;;
16193;SDS011;8204;53.582;10.080;2022-10-22T14:54:11;7.10;;;4.50;;
16193;SDS011;8204;53.582;10.080;2022-10-22T14:56:40;4.83;;;3.87;;
16193;SDS011;8204;53.582;10.080;2022-10-22T14:59:09;10.70;;;4.77;;
16193;SDS011;8204;53.582;10.080;2022-10-22T15:01:38;9.53;;;4.07;;
16193;SDS011;8204;53.582;10.080;2022-10-22T15:04:07;6.57;;;3.70;;
16193;SDS011;8204;53.582;10.080;2022-10-22T15:06:39;5.47;;;3.30;;
16193;SDS011;8204;53.582;10.080;2022-10-22T15:09:08;9.70;;;5.07;;
16193;SDS011;8204;53.582;10.080;2022-10-22T15:11:37;5.73;;;4.03;;
16193;SDS011;8204;53.582;10.080;2022-10-22T15:14:07;6.53;;;4.07;;